YYE weather

Fort Nelson Airport
Fort Nelson, British Columbia, Canada

Public forecast

Using degrees Celsius for public forecast. Weather courtesy of forecast.io.

Current aviation weather report (METAR) for Fort Nelson Airport

Retrieved 2020/02/21 23:00 UTC (1 hour ago):

CYYE 212300Z 27005KT 30SM FEW052 BKN140 05/M07 A2934 RMK SC1AC5 SLP957

Aviation forecast (TAF) for Fort Nelson Airport

Retrieved 2020/02/21 19:42 UTC (4 hours ago):

TAF TAF CYYE 211839Z 2119/2207 24006KT P6SM SCT120 TEMPO 2119/2207 BKN120 RMK NXT FCST BY 220100Z